Strona główna
METAR-TAF:

METAR-TAF

Lotnisko :

Port lotniczy Alderney

Alderney,

Szerokość geograficzna: 49-43N, Długość geograficzna: 002-12W, wysokość: 71 m

Aktualna obserwacja pogody

Raport powstał 13 godziny i 11 minut temu, godzina 14:50 UTC
Wiatr 18 kt od wschodnio-północny wschód
Temperatura 18°C
Wilgotność 64%
Ciśnienie 1019 hPa
Widzialność 10 km lub więcej
Brak chmur poniżej 1500 m i brak chmur cumulonimbus

METAR: EGJA 311450Z 07018KT CAVOK 18/11 Q1019

czas: 05:01 (04:01 UTC)

Prognoza

Raport powstał 14 godziny i 4 minut temu, godzina 13:57 UTC
Prognoza ważna od 31 godzina 15 UTC do 01 godzina 00 UTC
Wiatr 15 kt od wschodnio-północny wschód
Widzialność 10 km lub więcej
Brak chmur poniżej 1500 m i brak chmur cumulonimbus
Przejściowo
od 31 godzina 15 UTC do 01 godzina 00 UTC
Wiatr 18 kt od wschodnio-północny wschód w porywach dochodzący do 30 kt

TAF: EGJA 311357Z 3115/0100 07015KT CAVOK TEMPO 3115/0100 07018G30KT

Obserwacja i prognoza pogody dla ponad 4000 lotnisk (raport METAR i TAF).

Dostępne stacje oznaczono żółtymi i czerwonymi punktami na mapie.

Najedź kursorem aby zobaczyć nazwę stacji.

Kliknij aby zobaczyć obserwacje i prognozy pogody.

Aby zmienić mapę: kliknij na zielony przycisk z czarnym krzyżykiem, aby powiększyć; na zielony przycisk z myślnikiem, aby pomniejszyć; na zielone strzałki, aby przejść do map sąsiednich.


METAR-TAF: